createdAt,value
2023-05-08T00:00:07.239Z,82
2023-05-08T00:01:14.302Z,83
2023-05-08T00:02:20.990Z,83
2023-05-08T00:03:28.162Z,83
2023-05-08T00:04:35.199Z,83
2023-05-08T00:05:42.200Z,83
2023-05-08T00:06:49.378Z,83
2023-05-08T00:07:55.915Z,83
2023-05-08T00:09:03.082Z,83
2023-05-08T00:10:10.364Z,83
2023-05-08T00:11:17.244Z,83
2023-05-08T00:12:24.449Z,83
2023-05-08T00:13:30.897Z,83
2023-05-08T00:14:38.028Z,84
2023-05-08T00:15:45.157Z,84
2023-05-08T00:16:52.268Z,84
2023-05-08T00:17:59.479Z,84
2023-05-08T00:19:06.470Z,84
2023-05-08T00:20:13.298Z,84
2023-05-08T00:21:20.145Z,84
2023-05-08T00:22:27.223Z,84
2023-05-08T00:23:34.343Z,84
2023-05-08T00:24:40.914Z,84
2023-05-08T00:25:48.064Z,84
2023-05-08T00:26:55.134Z,84
2023-05-08T00:28:02.272Z,84
2023-05-08T00:29:09.339Z,84
2023-05-08T00:30:15.990Z,85
2023-05-08T00:31:23.099Z,85
2023-05-08T00:32:30.262Z,85
2023-05-08T00:33:37.267Z,85
2023-05-08T00:35:50.935Z,85
2023-05-08T00:36:58.051Z,85
2023-05-08T00:38:05.183Z,85
2023-05-08T00:39:12.296Z,85
2023-05-08T00:40:19.358Z,85
2023-05-08T00:41:25.990Z,85
2023-05-08T00:42:33.069Z,85
2023-05-08T00:43:40.376Z,85
2023-05-08T00:44:47.289Z,85
2023-05-08T00:45:54.446Z,85
2023-05-08T00:47:00.970Z,86
2023-05-08T00:48:08.055Z,86
2023-05-08T00:49:15.212Z,86
2023-05-08T00:50:21.758Z,86
2023-05-08T00:51:29.362Z,86
2023-05-08T00:52:35.982Z,86
2023-05-08T00:53:43.093Z,86
2023-05-08T00:54:50.189Z,86
2023-05-08T00:55:57.310Z,86
2023-05-08T00:57:04.429Z,86
2023-05-08T00:58:10.936Z,86
2023-05-08T01:00:25.185Z,86
2023-05-08T01:01:32.274Z,86
2023-05-08T01:02:38.935Z,86
2023-05-08T01:03:46.146Z,86
2023-05-08T01:04:53.048Z,87
2023-05-08T01:06:00.273Z,87
2023-05-08T01:07:07.278Z,87
2023-05-08T01:08:13.840Z,87
2023-05-08T01:09:20.953Z,87
2023-05-08T01:10:28.077Z,87
2023-05-08T01:11:35.739Z,87
2023-05-08T01:12:42.330Z,87
2023-05-08T01:13:48.920Z,87
2023-05-08T01:14:56.009Z,87
2023-05-08T01:16:03.116Z,87
2023-05-08T01:17:10.262Z,87
2023-05-08T01:18:17.312Z,87
2023-05-08T01:19:24.381Z,87
2023-05-08T01:20:31.022Z,87
2023-05-08T01:21:38.120Z,87
2023-05-08T01:22:45.234Z,87
2023-05-08T01:23:52.363Z,87
2023-05-08T01:24:58.914Z,87
2023-05-08T01:26:06.067Z,87
2023-05-08T01:27:13.116Z,87
2023-05-08T01:28:20.215Z,87
2023-05-08T01:29:27.373Z,87
2023-05-08T01:30:33.889Z,87
2023-05-08T01:31:40.973Z,87
2023-05-08T01:32:48.170Z,87
2023-05-08T01:33:55.342Z,88
2023-05-08T01:35:02.340Z,88
2023-05-08T01:36:08.928Z,88
2023-05-08T01:37:16.030Z,88
2023-05-08T01:38:23.090Z,88
2023-05-08T01:39:30.345Z,88
2023-05-08T01:40:37.360Z,88
2023-05-08T01:41:43.915Z,88
2023-05-08T01:42:51.012Z,88
2023-05-08T01:43:58.163Z,88
2023-05-08T01:45:05.430Z,88
2023-05-08T01:46:12.368Z,88
2023-05-08T01:47:18.983Z,88
2023-05-08T01:48:26.071Z,88
2023-05-08T01:49:33.103Z,88
2023-05-08T01:50:40.288Z,88
2023-05-08T01:51:47.388Z,88
2023-05-08T01:52:53.944Z,88
2023-05-08T01:54:01.002Z,88
2023-05-08T01:55:08.182Z,88
2023-05-08T01:56:15.255Z,88
2023-05-08T01:57:22.364Z,88
2023-05-08T01:58:28.988Z,88
2023-05-08T01:59:36.019Z,88
2023-05-08T02:00:43.195Z,88
2023-05-08T02:01:50.330Z,88
2023-05-08T02:04:04.077Z,88
2023-05-08T02:05:11.046Z,88
2023-05-08T02:06:18.187Z,88
2023-05-08T02:07:25.338Z,88
2023-05-08T02:08:31.863Z,88
2023-05-08T02:09:38.989Z,88
2023-05-08T02:10:46.108Z,88
2023-05-08T02:11:53.217Z,88
2023-05-08T02:12:59.875Z,88
2023-05-08T02:14:06.865Z,88
2023-05-08T02:15:13.934Z,88
2023-05-08T02:16:21.173Z,88
2023-05-08T02:17:28.237Z,88
2023-05-08T02:18:35.300Z,88
2023-05-08T02:19:41.856Z,88
2023-05-08T02:20:48.988Z,88
2023-05-08T02:21:56.177Z,88
2023-05-08T02:23:03.153Z,88
2023-05-08T02:24:10.343Z,88
2023-05-08T02:25:16.843Z,88
2023-05-08T02:26:23.953Z,88
2023-05-08T02:27:31.108Z,88
2023-05-08T02:28:38.245Z,88
2023-05-08T02:29:45.340Z,88
2023-05-08T02:30:51.846Z,88
2023-05-08T02:31:59.045Z,88
2023-05-08T02:33:06.211Z,88
2023-05-08T02:34:13.233Z,88
2023-05-08T02:35:20.349Z,88
2023-05-08T02:36:26.895Z,88
2023-05-08T02:37:33.989Z,88
2023-05-08T02:38:41.077Z,88
2023-05-08T02:39:48.237Z,88
2023-05-08T02:40:55.420Z,88
2023-05-08T02:42:02.458Z,88
2023-05-08T02:43:09.045Z,88
2023-05-08T02:44:16.151Z,88
2023-05-08T02:45:23.227Z,87
2023-05-08T02:46:30.440Z,87
2023-05-08T02:47:37.084Z,87
2023-05-08T02:48:44.002Z,88
2023-05-08T02:49:51.115Z,88
2023-05-08T02:50:58.242Z,87
2023-05-08T02:52:04.841Z,87
2023-05-08T02:53:11.909Z,87
2023-05-08T02:54:19.028Z,87
2023-05-08T02:55:26.149Z,88
2023-05-08T02:56:33.242Z,88
2023-05-08T02:57:40.297Z,87
2023-05-08T02:58:47.098Z,88
2023-05-08T02:59:54.026Z,88
2023-05-08T03:01:01.145Z,88
2023-05-08T03:02:08.261Z,88
2023-05-08T03:03:15.495Z,88
2023-05-08T03:04:21.950Z,88
2023-05-08T03:05:29.073Z,88
2023-05-08T03:07:43.257Z,88
2023-05-08T03:08:50.370Z,88
2023-05-08T03:09:56.921Z,88
2023-05-08T03:11:04.000Z,88
2023-05-08T03:12:12.157Z,88
2023-05-08T03:13:18.242Z,88
2023-05-08T03:14:24.841Z,88
2023-05-08T03:15:31.910Z,88
2023-05-08T03:16:39.049Z,88
2023-05-08T03:17:46.218Z,88
2023-05-08T03:18:53.239Z,88
2023-05-08T03:19:59.852Z,88
2023-05-08T03:21:06.959Z,88
2023-05-08T03:22:14.040Z,88
2023-05-08T03:23:21.178Z,88
2023-05-08T03:24:28.271Z,88
2023-05-08T03:25:34.873Z,88
2023-05-08T03:26:41.922Z,88
2023-05-08T03:27:49.086Z,88
2023-05-08T03:28:56.220Z,88
2023-05-08T03:30:03.309Z,88
2023-05-08T03:31:09.973Z,88
2023-05-08T03:32:17.066Z,88
2023-05-08T03:33:24.060Z,88
2023-05-08T03:34:31.133Z,88
2023-05-08T03:35:37.821Z,88
2023-05-08T03:36:44.869Z,88
2023-05-08T03:37:52.002Z,88
2023-05-08T03:38:59.091Z,88
2023-05-08T03:40:06.181Z,88
2023-05-08T03:41:13.296Z,88
2023-05-08T03:42:19.912Z,88
2023-05-08T03:43:26.986Z,88
2023-05-08T03:44:34.113Z,88
2023-05-08T03:45:41.162Z,88
2023-05-08T03:46:48.406Z,88
2023-05-08T03:47:55.011Z,88
2023-05-08T03:49:01.944Z,88
2023-05-08T03:50:09.103Z,88
2023-05-08T03:51:16.196Z,88
2023-05-08T03:52:23.267Z,88
2023-05-08T03:53:29.899Z,88
2023-05-08T03:54:37.035Z,88
2023-05-08T03:55:44.088Z,88
2023-05-08T03:56:51.185Z,88
2023-05-08T03:57:58.296Z,88
2023-05-08T03:59:04.936Z,88
2023-05-08T04:00:12.177Z,88
2023-05-08T04:01:19.065Z,88
2023-05-08T04:02:26.345Z,88
2023-05-08T04:03:33.468Z,88
2023-05-08T04:04:39.997Z,88
2023-05-08T04:05:47.056Z,88
2023-05-08T04:06:54.107Z,88
2023-05-08T04:08:01.247Z,88
2023-05-08T04:09:08.364Z,88
2023-05-08T04:11:22.018Z,88
2023-05-08T04:12:29.157Z,88
2023-05-08T04:13:36.266Z,88
2023-05-08T04:14:43.430Z,88
2023-05-08T04:15:49.953Z,88
2023-05-08T04:18:04.220Z,88
2023-05-08T04:19:11.248Z,88
2023-05-08T04:20:18.399Z,88
2023-05-08T04:21:24.936Z,88
2023-05-08T04:22:32.038Z,88
2023-05-08T04:23:39.178Z,88
2023-05-08T04:24:46.259Z,88
2023-05-08T04:25:52.808Z,88
2023-05-08T04:26:59.960Z,88
2023-05-08T04:28:07.095Z,87
2023-05-08T04:29:14.126Z,88
2023-05-08T04:30:21.236Z,87
2023-05-08T04:31:27.935Z,87
2023-05-08T04:32:35.003Z,87
2023-05-08T04:33:42.024Z,87
2023-05-08T04:34:49.225Z,88
2023-05-08T04:35:56.374Z,87
2023-05-08T04:37:02.854Z,88
2023-05-08T04:38:09.977Z,87
2023-05-08T04:39:17.049Z,88
2023-05-08T04:40:24.185Z,88
2023-05-08T04:41:31.384Z,88
2023-05-08T04:42:37.880Z,88
2023-05-08T04:43:45.003Z,88
2023-05-08T04:44:52.030Z,88
2023-05-08T04:45:59.248Z,88
2023-05-08T04:47:05.793Z,88
2023-05-08T04:48:12.891Z,88
2023-05-08T04:49:20.035Z,88
2023-05-08T04:50:27.086Z,88
2023-05-08T04:51:33.651Z,88
2023-05-08T04:52:41.267Z,87
2023-05-08T04:53:47.865Z,88
2023-05-08T04:54:54.974Z,87
2023-05-08T04:56:02.088Z,87
2023-05-08T04:57:09.214Z,87
2023-05-08T04:59:22.840Z,87
2023-05-08T05:00:30.007Z,87
2023-05-08T05:01:37.111Z,87
2023-05-08T05:02:44.215Z,87
2023-05-08T05:03:51.365Z,87
2023-05-08T05:04:57.883Z,87
2023-05-08T05:06:05.016Z,87
2023-05-08T05:07:12.106Z,87
2023-05-08T05:08:19.235Z,87
2023-05-08T05:09:25.845Z,87
2023-05-08T05:10:32.869Z,87
2023-05-08T05:11:40.039Z,87
2023-05-08T05:12:47.158Z,87
2023-05-08T05:15:01.295Z,87
2023-05-08T05:16:08.014Z,87
2023-05-08T05:17:15.033Z,87
2023-05-08T05:18:22.086Z,87
2023-05-08T05:19:29.217Z,87
2023-05-08T05:20:36.363Z,87
2023-05-08T05:21:42.861Z,87
2023-05-08T05:22:50.007Z,87
2023-05-08T05:23:57.113Z,87
2023-05-08T05:25:04.198Z,87
2023-05-08T05:26:11.313Z,87
2023-05-08T05:27:19.276Z,87
2023-05-08T05:28:25.064Z,87
2023-05-08T05:29:32.143Z,87
2023-05-08T05:30:39.260Z,87
2023-05-08T05:31:45.890Z,87
2023-05-08T05:32:53.106Z,87
2023-05-08T05:34:00.044Z,87
2023-05-08T05:35:07.177Z,87
2023-05-08T05:36:14.227Z,87
2023-05-08T05:37:20.847Z,87
2023-05-08T05:38:27.956Z,87
2023-05-08T05:40:42.113Z,87
2023-05-08T05:41:49.264Z,87
2023-05-08T05:42:55.877Z,87
2023-05-08T05:44:02.886Z,87
2023-05-08T05:45:10.191Z,87
2023-05-08T05:46:17.211Z,87
2023-05-08T05:47:24.241Z,87
2023-05-08T05:48:30.841Z,87
2023-05-08T05:49:37.938Z,87
2023-05-08T05:50:45.037Z,87
2023-05-08T05:51:52.394Z,88
2023-05-08T05:52:59.261Z,88
2023-05-08T05:54:05.848Z,87
2023-05-08T05:55:13.167Z,87
2023-05-08T05:56:20.049Z,87
2023-05-08T05:57:27.170Z,88
2023-05-08T05:58:33.716Z,88
2023-05-08T05:59:40.840Z,88
2023-05-08T06:00:48.007Z,88
2023-05-08T06:01:55.137Z,88
2023-05-08T06:03:01.825Z,88
2023-05-08T06:04:09.297Z,88
2023-05-08T06:05:15.959Z,88
2023-05-08T06:06:22.939Z,88
2023-05-08T06:07:30.117Z,88
2023-05-08T06:08:37.171Z,88
2023-05-08T06:09:44.261Z,88
2023-05-08T06:10:50.863Z,88
2023-05-08T06:11:57.986Z,88
2023-05-08T06:13:05.106Z,88
2023-05-08T06:14:12.166Z,88
2023-05-08T06:15:19.291Z,88
2023-05-08T06:16:25.902Z,88
2023-05-08T06:18:40.094Z,88
2023-05-08T06:19:47.245Z,88
2023-05-08T06:22:00.848Z,88
2023-05-08T06:23:08.099Z,88
2023-05-08T06:24:15.158Z,88
2023-05-08T06:25:21.655Z,88
2023-05-08T06:26:29.353Z,88
2023-05-08T06:27:35.886Z,88
2023-05-08T06:28:42.982Z,88
2023-05-08T06:29:50.088Z,88
2023-05-08T06:30:57.332Z,88
2023-05-08T06:32:04.279Z,88
2023-05-08T06:33:10.878Z,87
2023-05-08T06:34:18.040Z,88
2023-05-08T06:35:25.215Z,88
2023-05-08T06:36:32.202Z,87
2023-05-08T06:37:38.794Z,87
2023-05-08T06:38:45.923Z,87
2023-05-08T06:40:03.850Z,87
2023-05-08T06:41:00.154Z,87
2023-05-08T06:42:08.060Z,87
2023-05-08T06:43:13.811Z,87
2023-05-08T06:44:20.870Z,87
2023-05-08T06:45:28.091Z,87
2023-05-08T06:46:35.285Z,87
2023-05-08T06:47:41.718Z,87
2023-05-08T06:48:48.870Z,87
2023-05-08T06:49:55.908Z,87
2023-05-08T06:51:05.930Z,87
2023-05-08T06:52:12.220Z,87
2023-05-08T06:53:17.232Z,87
2023-05-08T06:54:23.851Z,87
2023-05-08T06:55:30.888Z,87
2023-05-08T06:56:38.055Z,87
2023-05-08T06:57:45.146Z,87
2023-05-08T06:59:04.489Z,86
2023-05-08T06:59:58.855Z,86
2023-05-08T07:01:06.107Z,86
2023-05-08T07:03:20.188Z,86
2023-05-08T07:04:27.396Z,86
2023-05-08T07:05:33.803Z,86
2023-05-08T07:06:40.907Z,86
2023-05-08T07:07:48.053Z,86
2023-05-08T07:08:55.181Z,86
2023-05-08T07:10:01.732Z,86
2023-05-08T07:11:08.865Z,86
2023-05-08T07:12:15.981Z,86
2023-05-08T07:13:23.107Z,86
2023-05-08T07:14:29.669Z,86
2023-05-08T07:15:37.260Z,86
2023-05-08T07:16:43.804Z,86
2023-05-08T07:17:50.968Z,86
2023-05-08T07:18:58.054Z,86
2023-05-08T07:20:05.176Z,86
2023-05-08T07:22:18.861Z,86
2023-05-08T07:23:26.010Z,86
2023-05-08T07:24:33.105Z,86
2023-05-08T07:25:40.271Z,87
2023-05-08T07:26:47.293Z,87
2023-05-08T07:27:53.872Z,87
2023-05-08T07:29:00.945Z,87
2023-05-08T07:30:08.144Z,87
2023-05-08T07:31:15.232Z,87
2023-05-08T07:32:21.759Z,87
2023-05-08T07:33:28.865Z,87
2023-05-08T07:34:36.018Z,87
2023-05-08T07:35:43.064Z,87
2023-05-08T07:36:49.689Z,87
2023-05-08T07:37:56.931Z,87
2023-05-08T07:39:03.851Z,87
2023-05-08T07:40:10.975Z,87
2023-05-08T07:41:17.584Z,87
2023-05-08T07:42:25.196Z,87
2023-05-08T07:44:53.197Z,87
2023-05-08T07:45:45.982Z,88
2023-05-08T07:46:53.096Z,88
2023-05-08T07:48:00.276Z,87
2023-05-08T07:49:06.815Z,87
2023-05-08T07:50:13.919Z,87
2023-05-08T07:51:20.994Z,87
2023-05-08T07:52:28.097Z,87
2023-05-08T07:53:35.219Z,87
2023-05-08T07:54:41.766Z,87
2023-05-08T07:55:48.922Z,87
2023-05-08T07:56:56.005Z,87
2023-05-08T07:58:03.139Z,87
2023-05-08T07:59:10.214Z,87
2023-05-08T08:00:16.788Z,87
2023-05-08T08:01:23.912Z,87
2023-05-08T08:02:31.071Z,87
2023-05-08T08:03:38.177Z,87
2023-05-08T08:04:45.220Z,87
2023-05-08T08:05:51.766Z,87
2023-05-08T08:06:59.012Z,87
2023-05-08T08:08:06.044Z,87
2023-05-08T08:09:13.135Z,87
2023-05-08T08:10:20.277Z,87
2023-05-08T08:11:26.847Z,87
2023-05-08T08:12:33.907Z,87
2023-05-08T08:13:41.038Z,87
2023-05-08T08:14:48.120Z,87
2023-05-08T08:15:55.265Z,87
2023-05-08T08:17:01.857Z,87
2023-05-08T08:18:09.033Z,87
2023-05-08T08:19:16.080Z,87
2023-05-08T08:20:23.128Z,87
2023-05-08T08:21:29.730Z,86
2023-05-08T08:22:36.882Z,86
2023-05-08T08:23:43.916Z,86
2023-05-08T08:25:57.695Z,86
2023-05-08T08:27:05.281Z,86
2023-05-08T08:28:11.828Z,86
2023-05-08T08:29:18.914Z,85
2023-05-08T08:37:08.240Z,85
2023-05-08T08:38:15.261Z,85
2023-05-08T08:39:21.844Z,84
2023-05-08T08:40:28.927Z,84
2023-05-08T08:41:36.076Z,84
2023-05-08T08:42:43.173Z,84
2023-05-08T08:43:49.780Z,84
2023-05-08T08:44:56.890Z,84
2023-05-08T08:46:03.975Z,84
2023-05-08T08:47:11.047Z,84
2023-05-08T08:48:17.695Z,84
2023-05-08T08:49:24.781Z,83
2023-05-08T08:50:31.877Z,84
2023-05-08T08:51:39.002Z,83
2023-05-08T08:52:46.098Z,83
2023-05-08T08:53:53.192Z,83
2023-05-08T08:54:59.798Z,83
2023-05-08T08:56:06.919Z,83
2023-05-08T08:57:13.968Z,83
2023-05-08T08:58:21.086Z,83
2023-05-08T08:59:28.219Z,83
2023-05-08T09:00:34.770Z,83
2023-05-08T09:01:41.884Z,83
2023-05-08T09:02:49.103Z,83
2023-05-08T09:03:56.228Z,83
2023-05-08T09:05:03.283Z,83
2023-05-08T09:07:16.893Z,83
2023-05-08T09:08:24.015Z,83
2023-05-08T09:09:31.120Z,83
2023-05-08T09:10:38.242Z,83
2023-05-08T09:11:44.807Z,83
2023-05-08T09:12:51.908Z,83
2023-05-08T09:13:59.019Z,82
2023-05-08T09:15:05.632Z,82
2023-05-08T09:16:13.299Z,82
2023-05-08T09:17:19.852Z,82
2023-05-08T09:18:26.925Z,82
2023-05-08T09:19:34.203Z,82
2023-05-08T09:20:41.083Z,82
2023-05-08T09:21:48.221Z,82
2023-05-08T09:22:54.815Z,82
2023-05-08T09:24:01.926Z,82
2023-05-08T09:25:09.054Z,82
2023-05-08T09:26:16.138Z,82
2023-05-08T09:27:23.216Z,82
2023-05-08T09:29:36.930Z,82
2023-05-08T09:30:44.010Z,81
2023-05-08T09:31:51.129Z,81
2023-05-08T09:32:57.741Z,82
2023-05-08T09:34:04.836Z,82
2023-05-08T09:35:12.223Z,81
2023-05-08T09:36:19.058Z,81
2023-05-08T09:37:25.633Z,81
2023-05-08T09:38:33.235Z,81
2023-05-08T09:39:39.858Z,81
2023-05-08T09:40:46.923Z,81
2023-05-08T09:41:54.019Z,81
2023-05-08T09:43:01.105Z,81
2023-05-08T09:44:08.292Z,81
2023-05-08T09:45:15.115Z,80
2023-05-08T10:33:15.690Z,78
2023-05-08T10:34:22.783Z,78
2023-05-08T10:35:29.916Z,78
2023-05-08T10:36:37.005Z,78
2023-05-08T10:37:44.098Z,78
2023-05-08T10:38:51.197Z,78
2023-05-08T10:39:57.839Z,78
2023-05-08T10:41:04.939Z,78
2023-05-08T10:42:12.275Z,78
2023-05-08T10:43:19.128Z,78
2023-05-08T10:44:26.295Z,78
2023-05-08T10:45:32.834Z,78
2023-05-08T10:46:40.041Z,78
2023-05-08T10:47:47.795Z,78
2023-05-08T10:48:54.238Z,78
2023-05-08T10:50:01.211Z,79
2023-05-08T10:51:07.824Z,79
2023-05-08T10:52:14.953Z,79
2023-05-08T10:53:21.510Z,79
2023-05-08T10:53:21.997Z,79
2023-05-08T10:54:29.790Z,79
2023-05-08T10:55:36.247Z,79
2023-05-08T10:56:42.826Z,79
2023-05-08T10:57:49.954Z,79
2023-05-08T10:57:49.976Z,79
2023-05-08T10:58:57.019Z,79
2023-05-08T11:00:04.285Z,79
2023-05-08T11:01:11.337Z,79
2023-05-08T11:02:17.985Z,79
2023-05-08T11:02:18.113Z,79
2023-05-08T11:03:32.101Z,79
2023-05-08T11:04:32.074Z,79
2023-05-08T11:05:39.152Z,79
2023-05-08T11:06:45.881Z,79
2023-05-08T11:06:45.907Z,79
2023-05-08T11:09:00.972Z,79
2023-05-08T11:11:13.650Z,80
2023-05-08T11:11:14.151Z,80
2023-05-08T11:12:20.731Z,80
2023-05-08T11:13:28.151Z,80
2023-05-08T11:14:34.929Z,80
2023-05-08T11:15:42.029Z,80
2023-05-08T11:16:49.208Z,80
2023-05-08T11:17:55.887Z,80
2023-05-08T11:19:02.841Z,80
2023-05-08T11:20:12.780Z,80
2023-05-08T11:20:13.319Z,80
2023-05-08T11:21:17.113Z,80
2023-05-08T11:22:24.181Z,80
2023-05-08T11:23:30.719Z,79
2023-05-08T11:24:37.848Z,79
2023-05-08T11:24:37.899Z,79
2023-05-08T11:25:44.957Z,79
2023-05-08T11:26:52.056Z,79
2023-05-08T11:27:59.209Z,79
2023-05-08T11:30:13.181Z,79
2023-05-08T11:31:20.032Z,79
2023-05-08T11:32:27.172Z,79
2023-05-08T11:33:34.155Z,79
2023-05-08T11:33:34.203Z,79
2023-05-08T11:34:40.766Z,79
2023-05-08T11:36:55.108Z,79
2023-05-08T11:38:02.059Z,79
2023-05-08T11:38:02.124Z,79
2023-05-08T11:39:09.215Z,79
2023-05-08T11:40:15.824Z,79
2023-05-08T11:41:22.875Z,79
2023-05-08T11:42:29.995Z,79
2023-05-08T11:43:37.096Z,79
2023-05-08T11:44:44.191Z,79
2023-05-08T11:45:50.786Z,79
2023-05-08T11:46:57.417Z,79
2023-05-08T11:46:57.965Z,79
2023-05-08T11:48:05.031Z,79
2023-05-08T11:49:12.065Z,79
2023-05-08T11:50:19.253Z,79
2023-05-08T11:52:32.900Z,79
2023-05-08T11:53:40.002Z,79
2023-05-08T11:54:47.133Z,79
2023-05-08T11:55:53.754Z,79
2023-05-08T11:57:00.755Z,79
2023-05-08T11:58:07.928Z,79
2023-05-08T11:59:15.069Z,79
2023-05-08T12:00:22.167Z,79
2023-05-08T12:01:29.327Z,79
2023-05-08T12:02:35.796Z,79
2023-05-08T12:03:43.094Z,79
2023-05-08T12:04:49.585Z,79
2023-05-08T12:04:50.022Z,79
2023-05-08T12:05:57.161Z,79
2023-05-08T12:07:03.698Z,78
2023-05-08T12:08:10.802Z,78
2023-05-08T12:09:17.426Z,78
2023-05-08T12:10:25.031Z,78
2023-05-08T12:11:32.133Z,78
2023-05-08T12:12:38.727Z,78
2023-05-08T12:13:45.845Z,78
2023-05-08T12:13:45.927Z,78
2023-05-08T12:14:52.906Z,78
2023-05-08T12:16:00.213Z,78
2023-05-08T12:17:07.306Z,78
2023-05-08T12:18:13.731Z,78
2023-05-08T12:18:13.801Z,78
2023-05-08T12:19:21.130Z,77
2023-05-08T12:20:27.978Z,77
2023-05-08T12:21:35.091Z,77
2023-05-08T12:22:41.654Z,76
2023-05-08T12:22:42.135Z,76
2023-05-08T12:23:48.744Z,76
2023-05-08T12:24:55.986Z,76
2023-05-08T12:26:02.898Z,76
2023-05-08T12:27:09.544Z,76
2023-05-08T12:27:10.102Z,76
2023-05-08T12:28:17.180Z,75
2023-05-08T12:29:23.733Z,76
2023-05-08T12:30:30.825Z,76
2023-05-08T12:33:52.124Z,76
2023-05-08T12:34:58.818Z,76
2023-05-08T12:36:06.023Z,76
2023-05-08T12:36:06.035Z,76
2023-05-08T12:37:12.948Z,76
2023-05-08T12:38:20.069Z,76
2023-05-08T12:40:33.752Z,76
2023-05-08T12:41:40.832Z,76
2023-05-08T12:42:47.986Z,77
2023-05-08T12:43:55.080Z,77
2023-05-08T12:45:02.152Z,77
2023-05-08T12:46:08.813Z,77
2023-05-08T12:47:15.858Z,77
2023-05-08T12:48:22.951Z,77
2023-05-08T12:49:30.079Z,77
2023-05-08T12:49:30.125Z,77
2023-05-08T12:50:36.645Z,77
2023-05-08T12:51:43.751Z,78
2023-05-08T12:52:52.024Z,78
2023-05-08T12:53:57.982Z,78
2023-05-08T12:55:05.086Z,78
2023-05-08T12:56:12.208Z,78
2023-05-08T12:58:25.332Z,78
2023-05-08T12:58:25.866Z,78
2023-05-08T12:59:32.966Z,77
2023-05-08T13:00:40.151Z,78
2023-05-08T13:01:47.194Z,77
2023-05-08T13:02:53.824Z,78
2023-05-08T13:04:02.668Z,78
2023-05-08T13:05:08.012Z,78
2023-05-08T13:06:15.136Z,78
2023-05-08T13:07:21.664Z,78
2023-05-08T13:07:21.695Z,78
2023-05-08T13:08:28.799Z,78
2023-05-08T13:09:35.905Z,78
2023-05-08T13:10:42.976Z,78
2023-05-08T13:11:50.120Z,78
2023-05-08T13:12:56.845Z,78
2023-05-08T13:15:10.923Z,78
2023-05-08T13:16:17.549Z,78
2023-05-08T13:16:18.094Z,78
2023-05-08T13:17:25.163Z,78
2023-05-08T13:18:31.677Z,78
2023-05-08T13:19:38.836Z,78
2023-05-08T13:20:45.959Z,79
2023-05-08T13:21:53.024Z,79
2023-05-08T13:23:00.314Z,79
2023-05-08T13:24:06.781Z,79
2023-05-08T13:25:14.089Z,79
2023-05-08T13:25:14.091Z,79
2023-05-08T13:26:20.397Z,79
2023-05-08T13:27:28.026Z,79
2023-05-08T13:29:41.690Z,78
2023-05-08T13:30:48.840Z,78
2023-05-08T13:31:55.993Z,78
2023-05-08T13:33:03.068Z,78
2023-05-08T13:37:30.911Z,79
2023-05-08T13:41:58.880Z,79
2023-05-08T13:44:13.050Z,79
2023-05-08T13:45:20.198Z,79
2023-05-08T13:46:26.813Z,79
2023-05-08T14:08:50.433Z,78
2023-05-08T14:09:53.359Z,79
2023-05-08T14:09:53.868Z,79
2023-05-08T14:11:00.960Z,79
2023-05-08T14:12:08.191Z,79
2023-05-08T14:13:14.745Z,79
2023-05-08T14:14:21.801Z,79
2023-05-08T14:15:36.536Z,79
2023-05-08T14:16:36.079Z,79
2023-05-08T14:17:43.227Z,79
2023-05-08T14:18:49.674Z,79
2023-05-08T14:18:49.750Z,79
2023-05-08T14:19:56.821Z,79
2023-05-08T14:21:03.868Z,79
2023-05-08T14:22:12.363Z,79
2023-05-08T14:23:18.183Z,79
2023-05-08T14:24:24.676Z,79
2023-05-08T14:26:39.635Z,79
2023-05-08T14:27:45.504Z,79
2023-05-08T14:27:46.000Z,79
2023-05-08T14:28:53.114Z,79
2023-05-08T14:29:59.744Z,79
2023-05-08T14:33:21.120Z,79
2023-05-08T14:34:28.234Z,79
2023-05-08T14:35:34.696Z,79
2023-05-08T14:45:39.832Z,80
2023-05-08T14:48:58.905Z,80
2023-05-08T14:50:06.043Z,80
2023-05-08T14:55:41.361Z,79
2023-05-08T14:56:51.383Z,79
2023-05-08T14:57:54.155Z,79
2023-05-08T14:57:54.751Z,79
2023-05-08T15:03:29.852Z,79
2023-05-08T15:03:29.961Z,79
2023-05-08T15:29:10.574Z,78
2023-05-08T15:31:24.812Z,78
2023-05-08T15:32:35.032Z,78
2023-05-08T15:32:35.267Z,78
2023-05-08T15:49:16.897Z,79
2023-05-08T15:52:37.720Z,79
2023-05-08T15:54:51.900Z,79
2023-05-08T15:55:59.037Z,79
2023-05-08T15:57:06.152Z,79
2023-05-08T15:58:12.703Z,79
2023-05-08T15:59:20.384Z,79
2023-05-08T16:00:33.347Z,80
2023-05-08T16:01:34.127Z,80
2023-05-08T16:02:40.695Z,80
2023-05-08T16:03:47.770Z,80
2023-05-08T16:04:54.851Z,79
2023-05-08T16:06:02.001Z,79
2023-05-08T16:07:09.003Z,79
2023-05-08T16:08:16.167Z,79
2023-05-08T16:09:22.731Z,79
2023-05-08T16:10:29.848Z,79
2023-05-08T16:11:36.942Z,79
2023-05-08T16:12:44.064Z,79
2023-05-08T16:13:50.622Z,78
2023-05-08T16:14:57.758Z,78
2023-05-08T16:16:04.895Z,78
2023-05-08T16:17:11.393Z,79
2023-05-08T16:18:19.059Z,79
2023-05-08T16:19:25.659Z,79
2023-05-08T16:20:34.990Z,79
2023-05-08T16:21:39.899Z,79
2023-05-08T16:22:46.946Z,79
2023-05-08T16:23:54.052Z,78
2023-05-08T16:25:00.634Z,78
2023-05-08T16:26:07.802Z,78
2023-05-08T16:27:14.881Z,78
2023-05-08T16:28:22.034Z,78
2023-05-08T16:29:29.079Z,78
2023-05-08T16:30:35.640Z,78
2023-05-08T16:31:42.749Z,78
2023-05-08T16:32:50.029Z,78
2023-05-08T16:33:57.006Z,78
2023-05-08T16:35:04.101Z,78
2023-05-08T16:36:10.646Z,78
2023-05-08T16:37:17.760Z,78
2023-05-08T16:38:24.884Z,79
2023-05-08T16:39:31.951Z,79
2023-05-08T16:40:39.092Z,79
2023-05-08T16:41:45.691Z,79
2023-05-08T16:42:52.775Z,79
2023-05-08T16:43:59.904Z,79
2023-05-08T16:45:07.019Z,79
2023-05-08T16:46:14.341Z,79
2023-05-08T16:47:20.669Z,79
2023-05-08T16:48:27.832Z,79
2023-05-08T16:49:34.875Z,79
2023-05-08T16:50:41.954Z,79
2023-05-08T16:51:49.106Z,79
2023-05-08T16:52:55.706Z,79
2023-05-08T16:55:09.906Z,79
2023-05-08T16:56:17.035Z,79
2023-05-08T16:57:24.055Z,79
2023-05-08T16:58:30.693Z,79
2023-05-08T16:59:37.825Z,79
2023-05-08T17:00:44.924Z,79
2023-05-08T17:01:51.978Z,79
2023-05-08T17:02:59.330Z,79
2023-05-08T17:04:05.698Z,79
2023-05-08T17:05:13.105Z,79
2023-05-08T17:06:19.955Z,79
2023-05-08T17:07:27.004Z,79
2023-05-08T17:08:33.587Z,79
2023-05-08T17:09:40.687Z,79
2023-05-08T17:10:47.826Z,79
2023-05-08T17:11:55.044Z,79
2023-05-08T17:13:02.062Z,79
2023-05-08T17:14:09.144Z,79
2023-05-08T17:15:15.751Z,79
2023-05-08T17:16:22.846Z,79
2023-05-08T17:17:29.953Z,79
2023-05-08T17:18:37.019Z,79
2023-05-08T17:19:44.084Z,79
2023-05-08T17:20:50.758Z,79
2023-05-08T17:23:04.996Z,79
2023-05-08T17:24:12.028Z,79
2023-05-08T17:25:18.643Z,79
2023-05-08T17:26:25.743Z,79
2023-05-08T17:27:32.811Z,79
2023-05-08T17:28:39.944Z,80
2023-05-08T17:29:47.055Z,80
2023-05-08T17:30:53.660Z,80
2023-05-08T17:32:00.770Z,80
2023-05-08T17:33:07.913Z,80
2023-05-08T17:34:14.973Z,80
2023-05-08T17:35:22.044Z,80
2023-05-08T17:36:28.697Z,80
2023-05-08T17:37:35.845Z,80
2023-05-08T17:38:42.813Z,80
2023-05-08T17:40:57.063Z,80
2023-05-08T17:42:03.591Z,80
2023-05-08T17:43:10.697Z,80
2023-05-08T17:44:17.858Z,80
2023-05-08T17:45:24.988Z,80
2023-05-08T17:46:32.015Z,80
2023-05-08T17:47:38.700Z,80
2023-05-08T17:48:45.947Z,80
2023-05-08T17:49:52.839Z,80
2023-05-08T17:51:00.018Z,80
2023-05-08T17:52:07.095Z,80
2023-05-08T17:53:13.650Z,80
2023-05-08T17:54:20.761Z,80
2023-05-08T17:55:27.863Z,80
2023-05-08T17:56:35.024Z,80
2023-05-08T17:58:48.670Z,80
2023-05-08T17:59:55.809Z,80
2023-05-08T18:01:02.998Z,80
2023-05-08T18:02:12.734Z,80
2023-05-08T18:03:16.644Z,80
2023-05-08T18:04:23.670Z,80
2023-05-08T18:05:30.774Z,80
2023-05-08T18:06:37.937Z,80
2023-05-08T18:07:44.987Z,80
2023-05-08T18:08:51.565Z,80
2023-05-08T18:09:58.687Z,80
2023-05-08T18:11:05.782Z,80
2023-05-08T18:12:12.872Z,80
2023-05-08T18:13:20.096Z,80
2023-05-08T18:14:26.746Z,80
2023-05-08T18:15:33.682Z,80
2023-05-08T18:16:40.792Z,80
2023-05-08T18:17:47.935Z,80
2023-05-08T18:18:55.008Z,80
2023-05-08T18:20:01.693Z,80
2023-05-08T18:22:15.790Z,80
2023-05-08T18:23:22.873Z,80
2023-05-08T18:24:30.012Z,80
2023-05-08T18:25:36.616Z,80
2023-05-08T18:26:43.684Z,80
2023-05-08T18:27:50.808Z,80
2023-05-08T18:28:57.897Z,80
2023-05-08T18:30:05.007Z,80
2023-05-08T18:31:11.602Z,80
2023-05-08T18:32:18.711Z,80